sensor_id;sensor_type;location;lat;lon;timestamp;P1;durP1;ratioP1;P2;durP2;ratioP2
10557;SDS011;5327;47.238;-2.304;2023-03-01T00:00:17;18.43;;;13.00;;
10557;SDS011;5327;47.238;-2.304;2023-03-01T00:02:43;17.07;;;11.63;;
10557;SDS011;5327;47.238;-2.304;2023-03-01T00:05:09;14.37;;;11.77;;
10557;SDS011;5327;47.238;-2.304;2023-03-01T00:07:36;16.90;;;11.17;;
10557;SDS011;5327;47.238;-2.304;2023-03-01T00:10:02;18.73;;;12.63;;
10557;SDS011;5327;47.238;-2.304;2023-03-01T00:12:28;19.97;;;15.30;;
10557;SDS011;5327;47.238;-2.304;2023-03-01T00:14:54;15.90;;;12.20;;
10557;SDS011;5327;47.238;-2.304;2023-03-01T00:17:20;16.17;;;10.13;;
10557;SDS011;5327;47.238;-2.304;2023-03-01T00:19:46;17.23;;;10.10;;
10557;SDS011;5327;47.238;-2.304;2023-03-01T00:22:12;16.37;;;12.03;;
10557;SDS011;5327;47.238;-2.304;2023-03-01T00:24:38;14.77;;;11.60;;
10557;SDS011;5327;47.238;-2.304;2023-03-01T00:27:04;13.90;;;11.50;;
10557;SDS011;5327;47.238;-2.304;2023-03-01T00:29:30;22.57;;;15.10;;
10557;SDS011;5327;47.238;-2.304;2023-03-01T00:31:56;15.57;;;12.60;;
10557;SDS011;5327;47.238;-2.304;2023-03-01T00:34:22;14.73;;;11.30;;
10557;SDS011;5327;47.238;-2.304;2023-03-01T00:36:48;20.93;;;15.23;;
10557;SDS011;5327;47.238;-2.304;2023-03-01T00:39:14;25.57;;;18.63;;
10557;SDS011;5327;47.238;-2.304;2023-03-01T00:41:41;17.20;;;11.17;;
10557;SDS011;5327;47.238;-2.304;2023-03-01T00:44:08;21.90;;;16.27;;
10557;SDS011;5327;47.238;-2.304;2023-03-01T00:46:34;24.20;;;16.33;;
10557;SDS011;5327;47.238;-2.304;2023-03-01T00:49:00;25.13;;;18.87;;
10557;SDS011;5327;47.238;-2.304;2023-03-01T00:51:27;27.20;;;17.97;;
10557;SDS011;5327;47.238;-2.304;2023-03-01T00:53:55;23.80;;;16.23;;
10557;SDS011;5327;47.238;-2.304;2023-03-01T00:56:21;20.57;;;14.70;;
10557;SDS011;5327;47.238;-2.304;2023-03-01T00:58:48;17.07;;;13.20;;
10557;SDS011;5327;47.238;-2.304;2023-03-01T01:01:19;24.87;;;16.20;;
10557;SDS011;5327;47.238;-2.304;2023-03-01T01:03:50;28.40;;;20.43;;
10557;SDS011;5327;47.238;-2.304;2023-03-01T01:06:20;26.23;;;18.23;;
10557;SDS011;5327;47.238;-2.304;2023-03-01T01:08:46;25.57;;;19.60;;
10557;SDS011;5327;47.238;-2.304;2023-03-01T01:11:13;21.17;;;14.10;;
10557;SDS011;5327;47.238;-2.304;2023-03-01T01:13:39;23.23;;;15.67;;
10557;SDS011;5327;47.238;-2.304;2023-03-01T01:16:05;26.00;;;16.40;;
10557;SDS011;5327;47.238;-2.304;2023-03-01T01:18:32;27.07;;;18.23;;
10557;SDS011;5327;47.238;-2.304;2023-03-01T01:21:03;23.33;;;15.17;;
10557;SDS011;5327;47.238;-2.304;2023-03-01T01:23:29;25.37;;;18.77;;
10557;SDS011;5327;47.238;-2.304;2023-03-01T01:25:55;29.33;;;19.40;;
10557;SDS011;5327;47.238;-2.304;2023-03-01T01:28:21;24.47;;;18.00;;
10557;SDS011;5327;47.238;-2.304;2023-03-01T01:30:47;22.70;;;14.90;;
10557;SDS011;5327;47.238;-2.304;2023-03-01T01:33:13;30.33;;;20.53;;
10557;SDS011;5327;47.238;-2.304;2023-03-01T01:35:39;25.33;;;16.00;;
10557;SDS011;5327;47.238;-2.304;2023-03-01T01:38:05;26.83;;;19.43;;
10557;SDS011;5327;47.238;-2.304;2023-03-01T01:40:31;21.30;;;16.73;;
10557;SDS011;5327;47.238;-2.304;2023-03-01T01:42:57;17.20;;;13.90;;
10557;SDS011;5327;47.238;-2.304;2023-03-01T01:45:33;21.50;;;16.73;;
10557;SDS011;5327;47.238;-2.304;2023-03-01T01:48:03;19.03;;;13.20;;
10557;SDS011;5327;47.238;-2.304;2023-03-01T01:50:30;25.60;;;19.23;;
10557;SDS011;5327;47.238;-2.304;2023-03-01T01:53:03;23.80;;;16.63;;
10557;SDS011;5327;47.238;-2.304;2023-03-01T01:55:31;26.57;;;18.30;;
10557;SDS011;5327;47.238;-2.304;2023-03-01T01:57:58;23.10;;;16.03;;
10557;SDS011;5327;47.238;-2.304;2023-03-01T02:00:27;23.00;;;16.23;;
10557;SDS011;5327;47.238;-2.304;2023-03-01T02:02:57;22.27;;;13.00;;
10557;SDS011;5327;47.238;-2.304;2023-03-01T02:07:52;21.07;;;15.17;;
10557;SDS011;5327;47.238;-2.304;2023-03-01T02:10:19;19.70;;;16.50;;
10557;SDS011;5327;47.238;-2.304;2023-03-01T02:12:45;24.67;;;14.87;;
10557;SDS011;5327;47.238;-2.304;2023-03-01T02:15:11;29.23;;;19.87;;
10557;SDS011;5327;47.238;-2.304;2023-03-01T02:17:37;29.60;;;14.57;;
10557;SDS011;5327;47.238;-2.304;2023-03-01T02:22:48;15.10;;;12.43;;
10557;SDS011;5327;47.238;-2.304;2023-03-01T02:27:52;20.23;;;14.10;;
10557;SDS011;5327;47.238;-2.304;2023-03-01T02:30:22;20.90;;;16.53;;
10557;SDS011;5327;47.238;-2.304;2023-03-01T02:32:49;19.30;;;14.40;;
10557;SDS011;5327;47.238;-2.304;2023-03-01T02:35:16;26.60;;;18.40;;
10557;SDS011;5327;47.238;-2.304;2023-03-01T02:37:43;19.57;;;15.00;;
10557;SDS011;5327;47.238;-2.304;2023-03-01T02:40:14;25.10;;;16.50;;
10557;SDS011;5327;47.238;-2.304;2023-03-01T02:42:47;20.73;;;15.47;;
10557;SDS011;5327;47.238;-2.304;2023-03-01T02:45:15;19.80;;;12.87;;
10557;SDS011;5327;47.238;-2.304;2023-03-01T02:47:41;17.17;;;12.13;;
10557;SDS011;5327;47.238;-2.304;2023-03-01T02:50:38;22.07;;;16.00;;
10557;SDS011;5327;47.238;-2.304;2023-03-01T02:55:40;20.30;;;14.20;;
10557;SDS011;5327;47.238;-2.304;2023-03-01T02:58:06;14.33;;;10.40;;
10557;SDS011;5327;47.238;-2.304;2023-03-01T03:00:35;19.63;;;14.03;;
10557;SDS011;5327;47.238;-2.304;2023-03-01T03:03:05;17.67;;;14.60;;
10557;SDS011;5327;47.238;-2.304;2023-03-01T03:05:32;16.90;;;13.60;;
10557;SDS011;5327;47.238;-2.304;2023-03-01T03:07:59;16.67;;;13.00;;
10557;SDS011;5327;47.238;-2.304;2023-03-01T03:10:30;22.53;;;14.73;;
10557;SDS011;5327;47.238;-2.304;2023-03-01T03:13:01;13.00;;;10.93;;
10557;SDS011;5327;47.238;-2.304;2023-03-01T03:15:28;24.03;;;16.70;;
10557;SDS011;5327;47.238;-2.304;2023-03-01T03:17:55;23.60;;;16.53;;
10557;SDS011;5327;47.238;-2.304;2023-03-01T03:20:22;16.67;;;12.87;;
10557;SDS011;5327;47.238;-2.304;2023-03-01T03:22:50;25.37;;;17.27;;
10557;SDS011;5327;47.238;-2.304;2023-03-01T03:25:17;16.17;;;10.93;;
10557;SDS011;5327;47.238;-2.304;2023-03-01T03:27:43;24.67;;;16.80;;
10557;SDS011;5327;47.238;-2.304;2023-03-01T03:30:11;14.80;;;12.40;;
10557;SDS011;5327;47.238;-2.304;2023-03-01T03:32:42;16.20;;;12.60;;
10557;SDS011;5327;47.238;-2.304;2023-03-01T03:35:17;25.00;;;14.97;;
10557;SDS011;5327;47.238;-2.304;2023-03-01T03:37:43;14.23;;;12.43;;
10557;SDS011;5327;47.238;-2.304;2023-03-01T03:40:33;21.37;;;15.13;;
10557;SDS011;5327;47.238;-2.304;2023-03-01T03:42:59;15.57;;;13.20;;
10557;SDS011;5327;47.238;-2.304;2023-03-01T03:45:25;19.30;;;15.73;;
10557;SDS011;5327;47.238;-2.304;2023-03-01T03:47:51;20.47;;;16.20;;
10557;SDS011;5327;47.238;-2.304;2023-03-01T03:50:18;14.60;;;9.60;;
10557;SDS011;5327;47.238;-2.304;2023-03-01T03:52:44;18.07;;;11.47;;
10557;SDS011;5327;47.238;-2.304;2023-03-01T03:55:11;21.83;;;17.00;;
10557;SDS011;5327;47.238;-2.304;2023-03-01T03:57:37;17.93;;;13.87;;
10557;SDS011;5327;47.238;-2.304;2023-03-01T04:00:04;14.60;;;10.20;;
10557;SDS011;5327;47.238;-2.304;2023-03-01T04:02:30;24.00;;;17.67;;
10557;SDS011;5327;47.238;-2.304;2023-03-01T04:04:56;21.93;;;14.97;;
10557;SDS011;5327;47.238;-2.304;2023-03-01T04:07:22;21.73;;;16.50;;
10557;SDS011;5327;47.238;-2.304;2023-03-01T04:09:48;22.50;;;16.60;;
10557;SDS011;5327;47.238;-2.304;2023-03-01T04:12:14;22.50;;;15.67;;
10557;SDS011;5327;47.238;-2.304;2023-03-01T04:14:45;15.20;;;12.60;;
10557;SDS011;5327;47.238;-2.304;2023-03-01T04:17:11;14.20;;;11.33;;
10557;SDS011;5327;47.238;-2.304;2023-03-01T04:19:37;26.57;;;16.93;;
10557;SDS011;5327;47.238;-2.304;2023-03-01T04:22:03;14.83;;;11.60;;
10557;SDS011;5327;47.238;-2.304;2023-03-01T04:24:34;24.57;;;17.03;;
10557;SDS011;5327;47.238;-2.304;2023-03-01T04:27:01;20.50;;;14.90;;
10557;SDS011;5327;47.238;-2.304;2023-03-01T04:29:27;18.87;;;15.13;;
10557;SDS011;5327;47.238;-2.304;2023-03-01T04:31:53;18.70;;;14.20;;
10557;SDS011;5327;47.238;-2.304;2023-03-01T04:34:19;20.30;;;16.47;;
10557;SDS011;5327;47.238;-2.304;2023-03-01T04:36:45;21.37;;;14.93;;
10557;SDS011;5327;47.238;-2.304;2023-03-01T04:39:11;21.00;;;16.37;;
10557;SDS011;5327;47.238;-2.304;2023-03-01T04:41:37;17.47;;;14.00;;
10557;SDS011;5327;47.238;-2.304;2023-03-01T04:44:08;28.50;;;19.97;;
10557;SDS011;5327;47.238;-2.304;2023-03-01T04:46:34;22.50;;;15.57;;
10557;SDS011;5327;47.238;-2.304;2023-03-01T04:49:00;23.50;;;16.87;;
10557;SDS011;5327;47.238;-2.304;2023-03-01T04:51:26;19.13;;;15.33;;
10557;SDS011;5327;47.238;-2.304;2023-03-01T04:53:53;22.17;;;15.33;;
10557;SDS011;5327;47.238;-2.304;2023-03-01T04:56:19;14.63;;;10.60;;
10557;SDS011;5327;47.238;-2.304;2023-03-01T04:58:47;21.00;;;15.80;;
10557;SDS011;5327;47.238;-2.304;2023-03-01T05:01:17;18.20;;;15.03;;
10557;SDS011;5327;47.238;-2.304;2023-03-01T05:03:45;19.33;;;14.80;;
10557;SDS011;5327;47.238;-2.304;2023-03-01T05:06:11;17.03;;;12.53;;
10557;SDS011;5327;47.238;-2.304;2023-03-01T05:08:38;18.93;;;13.57;;
10557;SDS011;5327;47.238;-2.304;2023-03-01T05:11:04;19.57;;;14.57;;
10557;SDS011;5327;47.238;-2.304;2023-03-01T05:13:30;26.43;;;17.80;;
10557;SDS011;5327;47.238;-2.304;2023-03-01T05:15:58;18.17;;;12.90;;
10557;SDS011;5327;47.238;-2.304;2023-03-01T05:18:24;20.67;;;15.60;;
10557;SDS011;5327;47.238;-2.304;2023-03-01T05:20:54;17.37;;;11.47;;
10557;SDS011;5327;47.238;-2.304;2023-03-01T05:23:21;26.90;;;18.27;;
10557;SDS011;5327;47.238;-2.304;2023-03-01T05:25:47;17.73;;;12.33;;
10557;SDS011;5327;47.238;-2.304;2023-03-01T05:28:14;20.20;;;15.73;;
10557;SDS011;5327;47.238;-2.304;2023-03-01T05:30:40;20.77;;;11.73;;
10557;SDS011;5327;47.238;-2.304;2023-03-01T05:33:07;20.57;;;14.63;;
10557;SDS011;5327;47.238;-2.304;2023-03-01T05:35:42;25.53;;;17.70;;
10557;SDS011;5327;47.238;-2.304;2023-03-01T05:38:09;18.77;;;14.73;;
10557;SDS011;5327;47.238;-2.304;2023-03-01T05:40:38;22.23;;;18.20;;
10557;SDS011;5327;47.238;-2.304;2023-03-01T05:43:04;14.90;;;11.70;;
10557;SDS011;5327;47.238;-2.304;2023-03-01T05:45:30;23.67;;;17.50;;
10557;SDS011;5327;47.238;-2.304;2023-03-01T05:47:57;19.80;;;17.70;;
10557;SDS011;5327;47.238;-2.304;2023-03-01T05:50:25;24.80;;;15.70;;
10557;SDS011;5327;47.238;-2.304;2023-03-01T05:52:54;19.83;;;16.00;;
10557;SDS011;5327;47.238;-2.304;2023-03-01T05:55:22;23.37;;;14.93;;
10557;SDS011;5327;47.238;-2.304;2023-03-01T05:57:48;20.67;;;14.83;;
10557;SDS011;5327;47.238;-2.304;2023-03-01T06:00:15;19.93;;;14.93;;
10557;SDS011;5327;47.238;-2.304;2023-03-01T06:02:42;23.73;;;16.40;;
10557;SDS011;5327;47.238;-2.304;2023-03-01T06:05:09;18.27;;;12.90;;
10557;SDS011;5327;47.238;-2.304;2023-03-01T06:07:35;13.23;;;11.10;;
10557;SDS011;5327;47.238;-2.304;2023-03-01T06:10:04;22.30;;;15.10;;
10557;SDS011;5327;47.238;-2.304;2023-03-01T06:12:31;18.60;;;13.50;;
10557;SDS011;5327;47.238;-2.304;2023-03-01T06:14:58;17.67;;;12.90;;
10557;SDS011;5327;47.238;-2.304;2023-03-01T06:17:24;19.50;;;14.50;;
10557;SDS011;5327;47.238;-2.304;2023-03-01T06:19:50;14.90;;;11.43;;
10557;SDS011;5327;47.238;-2.304;2023-03-01T06:22:16;21.50;;;15.53;;
10557;SDS011;5327;47.238;-2.304;2023-03-01T06:24:42;13.67;;;11.23;;
10557;SDS011;5327;47.238;-2.304;2023-03-01T06:27:08;16.63;;;13.03;;
10557;SDS011;5327;47.238;-2.304;2023-03-01T06:29:34;17.47;;;12.20;;
10557;SDS011;5327;47.238;-2.304;2023-03-01T06:32:00;18.27;;;12.97;;
10557;SDS011;5327;47.238;-2.304;2023-03-01T06:34:26;18.40;;;12.10;;
10557;SDS011;5327;47.238;-2.304;2023-03-01T06:36:52;21.20;;;14.10;;
10557;SDS011;5327;47.238;-2.304;2023-03-01T06:39:18;14.90;;;10.63;;
10557;SDS011;5327;47.238;-2.304;2023-03-01T06:41:44;19.10;;;12.80;;
10557;SDS011;5327;47.238;-2.304;2023-03-01T06:44:10;19.40;;;15.10;;
10557;SDS011;5327;47.238;-2.304;2023-03-01T06:46:36;17.83;;;14.70;;
10557;SDS011;5327;47.238;-2.304;2023-03-01T06:49:02;20.60;;;13.10;;
10557;SDS011;5327;47.238;-2.304;2023-03-01T06:51:32;17.83;;;14.07;;
10557;SDS011;5327;47.238;-2.304;2023-03-01T06:53:58;16.00;;;12.10;;
10557;SDS011;5327;47.238;-2.304;2023-03-01T06:56:24;21.33;;;15.60;;
10557;SDS011;5327;47.238;-2.304;2023-03-01T06:58:50;10.73;;;9.43;;
10557;SDS011;5327;47.238;-2.304;2023-03-01T07:01:16;22.23;;;14.67;;
10557;SDS011;5327;47.238;-2.304;2023-03-01T07:03:42;15.10;;;11.37;;
10557;SDS011;5327;47.238;-2.304;2023-03-01T07:06:09;18.73;;;14.03;;
10557;SDS011;5327;47.238;-2.304;2023-03-01T07:08:35;17.50;;;13.40;;
10557;SDS011;5327;47.238;-2.304;2023-03-01T07:11:01;14.20;;;12.00;;
10557;SDS011;5327;47.238;-2.304;2023-03-01T07:13:28;19.93;;;14.10;;
10557;SDS011;5327;47.238;-2.304;2023-03-01T07:15:54;20.73;;;14.60;;
10557;SDS011;5327;47.238;-2.304;2023-03-01T07:18:20;15.27;;;11.20;;
10557;SDS011;5327;47.238;-2.304;2023-03-01T07:20:46;17.23;;;13.73;;
10557;SDS011;5327;47.238;-2.304;2023-03-01T07:23:12;13.93;;;11.60;;
10557;SDS011;5327;47.238;-2.304;2023-03-01T07:25:38;14.37;;;11.67;;
10557;SDS011;5327;47.238;-2.304;2023-03-01T07:28:04;14.80;;;12.73;;
10557;SDS011;5327;47.238;-2.304;2023-03-01T07:30:30;17.30;;;12.97;;
10557;SDS011;5327;47.238;-2.304;2023-03-01T07:32:57;16.23;;;13.07;;
10557;SDS011;5327;47.238;-2.304;2023-03-01T07:35:24;17.00;;;13.80;;
10557;SDS011;5327;47.238;-2.304;2023-03-01T07:37:50;17.80;;;14.20;;
10557;SDS011;5327;47.238;-2.304;2023-03-01T07:40:16;15.37;;;12.20;;
10557;SDS011;5327;47.238;-2.304;2023-03-01T07:42:42;18.33;;;13.07;;
10557;SDS011;5327;47.238;-2.304;2023-03-01T07:45:09;15.93;;;11.30;;
10557;SDS011;5327;47.238;-2.304;2023-03-01T07:47:35;15.63;;;9.10;;
10557;SDS011;5327;47.238;-2.304;2023-03-01T07:50:01;19.03;;;12.77;;
10557;SDS011;5327;47.238;-2.304;2023-03-01T07:52:28;15.17;;;11.50;;
10557;SDS011;5327;47.238;-2.304;2023-03-01T07:54:54;12.20;;;9.53;;
10557;SDS011;5327;47.238;-2.304;2023-03-01T07:57:20;14.93;;;12.07;;
10557;SDS011;5327;47.238;-2.304;2023-03-01T07:59:46;15.43;;;11.30;;
10557;SDS011;5327;47.238;-2.304;2023-03-01T08:02:12;11.30;;;10.10;;
10557;SDS011;5327;47.238;-2.304;2023-03-01T08:04:40;13.07;;;9.00;;
10557;SDS011;5327;47.238;-2.304;2023-03-01T08:07:06;18.50;;;11.03;;
10557;SDS011;5327;47.238;-2.304;2023-03-01T08:09:33;9.70;;;8.27;;
10557;SDS011;5327;47.238;-2.304;2023-03-01T08:12:00;19.60;;;11.90;;
10557;SDS011;5327;47.238;-2.304;2023-03-01T08:14:26;15.10;;;11.93;;
10557;SDS011;5327;47.238;-2.304;2023-03-01T08:16:52;13.67;;;9.93;;
10557;SDS011;5327;47.238;-2.304;2023-03-01T08:19:19;12.80;;;9.60;;
10557;SDS011;5327;47.238;-2.304;2023-03-01T08:21:45;11.77;;;9.20;;
10557;SDS011;5327;47.238;-2.304;2023-03-01T08:24:14;11.77;;;10.43;;
10557;SDS011;5327;47.238;-2.304;2023-03-01T08:26:40;14.33;;;8.67;;
10557;SDS011;5327;47.238;-2.304;2023-03-01T08:29:06;18.73;;;12.30;;
10557;SDS011;5327;47.238;-2.304;2023-03-01T08:31:33;11.33;;;9.57;;
10557;SDS011;5327;47.238;-2.304;2023-03-01T08:34:04;14.20;;;12.53;;
10557;SDS011;5327;47.238;-2.304;2023-03-01T08:36:32;14.27;;;10.37;;
10557;SDS011;5327;47.238;-2.304;2023-03-01T08:38:58;15.97;;;11.37;;
10557;SDS011;5327;47.238;-2.304;2023-03-01T08:41:25;10.87;;;9.37;;
10557;SDS011;5327;47.238;-2.304;2023-03-01T08:43:51;12.40;;;9.53;;
10557;SDS011;5327;47.238;-2.304;2023-03-01T08:46:17;15.30;;;10.97;;
10557;SDS011;5327;47.238;-2.304;2023-03-01T08:48:43;14.50;;;10.67;;
10557;SDS011;5327;47.238;-2.304;2023-03-01T08:51:14;11.23;;;9.50;;
10557;SDS011;5327;47.238;-2.304;2023-03-01T08:53:40;25.50;;;13.43;;
10557;SDS011;5327;47.238;-2.304;2023-03-01T08:56:07;12.60;;;11.07;;
10557;SDS011;5327;47.238;-2.304;2023-03-01T08:58:33;14.43;;;9.37;;
10557;SDS011;5327;47.238;-2.304;2023-03-01T09:00:59;11.40;;;9.77;;
10557;SDS011;5327;47.238;-2.304;2023-03-01T09:03:25;13.73;;;12.30;;
10557;SDS011;5327;47.238;-2.304;2023-03-01T09:05:52;13.30;;;11.90;;
10557;SDS011;5327;47.238;-2.304;2023-03-01T09:08:18;14.50;;;11.23;;
10557;SDS011;5327;47.238;-2.304;2023-03-01T09:10:44;12.13;;;9.30;;
10557;SDS011;5327;47.238;-2.304;2023-03-01T09:13:11;10.90;;;8.80;;
10557;SDS011;5327;47.238;-2.304;2023-03-01T09:15:37;11.03;;;8.70;;
10557;SDS011;5327;47.238;-2.304;2023-03-01T09:18:04;12.13;;;9.50;;
10557;SDS011;5327;47.238;-2.304;2023-03-01T09:20:30;12.20;;;9.23;;
10557;SDS011;5327;47.238;-2.304;2023-03-01T09:22:56;12.50;;;11.00;;
10557;SDS011;5327;47.238;-2.304;2023-03-01T09:25:23;15.03;;;10.47;;
10557;SDS011;5327;47.238;-2.304;2023-03-01T09:27:52;13.10;;;9.73;;
10557;SDS011;5327;47.238;-2.304;2023-03-01T09:30:18;11.70;;;8.43;;
10557;SDS011;5327;47.238;-2.304;2023-03-01T09:32:45;9.93;;;8.90;;
10557;SDS011;5327;47.238;-2.304;2023-03-01T09:35:11;12.43;;;11.17;;
10557;SDS011;5327;47.238;-2.304;2023-03-01T09:37:38;13.07;;;11.80;;
10557;SDS011;5327;47.238;-2.304;2023-03-01T09:40:11;11.30;;;9.87;;
10557;SDS011;5327;47.238;-2.304;2023-03-01T09:42:45;10.00;;;9.00;;
10557;SDS011;5327;47.238;-2.304;2023-03-01T09:45:15;16.50;;;11.97;;
10557;SDS011;5327;47.238;-2.304;2023-03-01T09:47:45;12.97;;;11.63;;
10557;SDS011;5327;47.238;-2.304;2023-03-01T09:50:12;13.60;;;12.30;;
10557;SDS011;5327;47.238;-2.304;2023-03-01T09:52:54;12.90;;;10.30;;
10557;SDS011;5327;47.238;-2.304;2023-03-01T09:55:39;10.97;;;9.87;;
10557;SDS011;5327;47.238;-2.304;2023-03-01T10:00:44;13.93;;;12.70;;
10557;SDS011;5327;47.238;-2.304;2023-03-01T10:03:15;13.73;;;11.43;;
10557;SDS011;5327;47.238;-2.304;2023-03-01T10:08:27;13.00;;;11.70;;
10557;SDS011;5327;47.238;-2.304;2023-03-01T10:10:56;9.47;;;7.67;;
10557;SDS011;5327;47.238;-2.304;2023-03-01T10:16:46;9.37;;;8.40;;
10557;SDS011;5327;47.238;-2.304;2023-03-01T10:18:53;11.00;;;9.00;;
10557;SDS011;5327;47.238;-2.304;2023-03-01T10:21:19;12.23;;;11.00;;
10557;SDS011;5327;47.238;-2.304;2023-03-01T10:23:46;11.33;;;10.23;;
10557;SDS011;5327;47.238;-2.304;2023-03-01T10:28:54;15.73;;;8.30;;
10557;SDS011;5327;47.238;-2.304;2023-03-01T10:31:23;8.60;;;6.83;;
10557;SDS011;5327;47.238;-2.304;2023-03-01T10:33:54;11.97;;;9.03;;
10557;SDS011;5327;47.238;-2.304;2023-03-01T10:36:21;11.50;;;9.97;;
10557;SDS011;5327;47.238;-2.304;2023-03-01T10:38:52;12.73;;;11.43;;
10557;SDS011;5327;47.238;-2.304;2023-03-01T10:41:19;12.10;;;9.83;;
10557;SDS011;5327;47.238;-2.304;2023-03-01T10:51:34;11.80;;;10.00;;
10557;SDS011;5327;47.238;-2.304;2023-03-01T10:54:00;10.80;;;9.70;;
10557;SDS011;5327;47.238;-2.304;2023-03-01T10:56:27;13.27;;;10.50;;
10557;SDS011;5327;47.238;-2.304;2023-03-01T10:59:03;13.23;;;7.70;;
10557;SDS011;5327;47.238;-2.304;2023-03-01T11:01:33;7.27;;;6.50;;
10557;SDS011;5327;47.238;-2.304;2023-03-01T11:04:17;15.57;;;12.20;;
10557;SDS011;5327;47.238;-2.304;2023-03-01T11:06:43;10.50;;;8.83;;
10557;SDS011;5327;47.238;-2.304;2023-03-01T11:09:23;11.63;;;8.93;;
10557;SDS011;5327;47.238;-2.304;2023-03-01T11:11:56;13.60;;;10.07;;
10557;SDS011;5327;47.238;-2.304;2023-03-01T11:14:23;10.63;;;9.50;;
10557;SDS011;5327;47.238;-2.304;2023-03-01T11:16:59;11.30;;;8.47;;
10557;SDS011;5327;47.238;-2.304;2023-03-01T11:19:26;12.23;;;10.23;;
10557;SDS011;5327;47.238;-2.304;2023-03-01T11:21:57;8.07;;;7.07;;
10557;SDS011;5327;47.238;-2.304;2023-03-01T11:24:33;13.07;;;10.10;;
10557;SDS011;5327;47.238;-2.304;2023-03-01T11:27:01;12.03;;;9.43;;
10557;SDS011;5327;47.238;-2.304;2023-03-01T11:32:28;11.87;;;8.20;;
10557;SDS011;5327;47.238;-2.304;2023-03-01T11:34:58;13.50;;;8.80;;
10557;SDS011;5327;47.238;-2.304;2023-03-01T11:37:35;9.83;;;8.30;;
10557;SDS011;5327;47.238;-2.304;2023-03-01T11:45:23;10.03;;;9.03;;
10557;SDS011;5327;47.238;-2.304;2023-03-01T11:48:02;11.07;;;8.90;;
10557;SDS011;5327;47.238;-2.304;2023-03-01T11:50:36;10.87;;;8.20;;
10557;SDS011;5327;47.238;-2.304;2023-03-01T11:53:28;12.67;;;8.77;;
10557;SDS011;5327;47.238;-2.304;2023-03-01T12:11:01;13.63;;;9.90;;
10557;SDS011;5327;47.238;-2.304;2023-03-01T12:13:44;10.47;;;8.43;;
10557;SDS011;5327;47.238;-2.304;2023-03-01T12:26:31;13.60;;;10.33;;
10557;SDS011;5327;47.238;-2.304;2023-03-01T12:39:55;10.83;;;9.63;;
10557;SDS011;5327;47.238;-2.304;2023-03-01T12:50:24;11.30;;;9.17;;
10557;SDS011;5327;47.238;-2.304;2023-03-01T12:52:57;12.63;;;8.40;;
10557;SDS011;5327;47.238;-2.304;2023-03-01T12:55:37;10.07;;;9.00;;
10557;SDS011;5327;47.238;-2.304;2023-03-01T12:58:06;7.90;;;7.17;;
10557;SDS011;5327;47.238;-2.304;2023-03-01T13:00:39;11.47;;;8.93;;
10557;SDS011;5327;47.238;-2.304;2023-03-01T13:05:39;14.40;;;10.80;;
10557;SDS011;5327;47.238;-2.304;2023-03-01T13:08:16;11.80;;;10.60;;
10557;SDS011;5327;47.238;-2.304;2023-03-01T13:10:52;12.43;;;10.93;;
10557;SDS011;5327;47.238;-2.304;2023-03-01T13:13:22;11.90;;;9.70;;
10557;SDS011;5327;47.238;-2.304;2023-03-01T13:15:48;13.23;;;11.43;;
10557;SDS011;5327;47.238;-2.304;2023-03-01T13:25:59;13.07;;;11.57;;
10557;SDS011;5327;47.238;-2.304;2023-03-01T13:31:00;10.00;;;8.80;;
10557;SDS011;5327;47.238;-2.304;2023-03-01T13:36:02;10.40;;;9.37;;
10557;SDS011;5327;47.238;-2.304;2023-03-01T13:38:47;12.80;;;11.03;;
10557;SDS011;5327;47.238;-2.304;2023-03-01T13:41:17;11.17;;;8.17;;
10557;SDS011;5327;47.238;-2.304;2023-03-01T13:43:59;12.13;;;10.90;;
10557;SDS011;5327;47.238;-2.304;2023-03-01T13:46:26;11.57;;;8.20;;
10557;SDS011;5327;47.238;-2.304;2023-03-01T13:48:53;14.33;;;9.70;;
10557;SDS011;5327;47.238;-2.304;2023-03-01T13:51:25;18.37;;;13.83;;
10557;SDS011;5327;47.238;-2.304;2023-03-01T13:53:51;15.57;;;12.83;;
10557;SDS011;5327;47.238;-2.304;2023-03-01T13:56:25;11.70;;;10.27;;
10557;SDS011;5327;47.238;-2.304;2023-03-01T13:58:53;16.57;;;12.37;;
10557;SDS011;5327;47.238;-2.304;2023-03-01T14:01:22;16.50;;;11.50;;
10557;SDS011;5327;47.238;-2.304;2023-03-01T14:03:48;17.10;;;13.80;;
10557;SDS011;5327;47.238;-2.304;2023-03-01T14:06:16;17.23;;;12.90;;
10557;SDS011;5327;47.238;-2.304;2023-03-01T14:08:45;17.30;;;11.77;;
10557;SDS011;5327;47.238;-2.304;2023-03-01T14:16:24;12.67;;;9.27;;
10557;SDS011;5327;47.238;-2.304;2023-03-01T14:19:00;19.63;;;12.40;;
10557;SDS011;5327;47.238;-2.304;2023-03-01T14:21:30;17.67;;;13.43;;
10557;SDS011;5327;47.238;-2.304;2023-03-01T14:23:56;17.77;;;13.77;;
10557;SDS011;5327;47.238;-2.304;2023-03-01T14:26:22;17.17;;;13.10;;
10557;SDS011;5327;47.238;-2.304;2023-03-01T14:28:49;15.60;;;10.77;;
10557;SDS011;5327;47.238;-2.304;2023-03-01T14:33:56;16.40;;;13.47;;
10557;SDS011;5327;47.238;-2.304;2023-03-01T14:36:26;13.13;;;11.70;;
10557;SDS011;5327;47.238;-2.304;2023-03-01T14:38:53;13.93;;;12.00;;
10557;SDS011;5327;47.238;-2.304;2023-03-01T14:41:23;14.10;;;12.13;;
10557;SDS011;5327;47.238;-2.304;2023-03-01T14:46:24;15.37;;;12.40;;
10557;SDS011;5327;47.238;-2.304;2023-03-01T14:48:51;17.50;;;12.20;;
10557;SDS011;5327;47.238;-2.304;2023-03-01T14:51:18;18.27;;;11.73;;
10557;SDS011;5327;47.238;-2.304;2023-03-01T14:53:44;16.90;;;15.17;;
10557;SDS011;5327;47.238;-2.304;2023-03-01T14:56:14;21.17;;;16.27;;
10557;SDS011;5327;47.238;-2.304;2023-03-01T14:58:42;21.90;;;15.87;;
10557;SDS011;5327;47.238;-2.304;2023-03-01T15:01:13;16.43;;;14.40;;
10557;SDS011;5327;47.238;-2.304;2023-03-01T15:03:45;17.17;;;12.67;;
10557;SDS011;5327;47.238;-2.304;2023-03-01T15:06:14;20.50;;;15.63;;
10557;SDS011;5327;47.238;-2.304;2023-03-01T15:08:42;18.27;;;14.10;;
10557;SDS011;5327;47.238;-2.304;2023-03-01T15:13:39;15.80;;;11.97;;
10557;SDS011;5327;47.238;-2.304;2023-03-01T15:16:07;16.83;;;13.97;;
10557;SDS011;5327;47.238;-2.304;2023-03-01T15:18:35;21.50;;;15.43;;
10557;SDS011;5327;47.238;-2.304;2023-03-01T15:21:05;13.80;;;12.40;;
10557;SDS011;5327;47.238;-2.304;2023-03-01T15:23:32;15.07;;;12.27;;
10557;SDS011;5327;47.238;-2.304;2023-03-01T15:25:58;21.10;;;17.40;;
10557;SDS011;5327;47.238;-2.304;2023-03-01T15:28:29;21.00;;;16.70;;
10557;SDS011;5327;47.238;-2.304;2023-03-01T15:31:41;15.17;;;12.07;;
10557;SDS011;5327;47.238;-2.304;2023-03-01T15:33:42;20.17;;;15.17;;
10557;SDS011;5327;47.238;-2.304;2023-03-01T15:38:57;21.90;;;17.07;;
10557;SDS011;5327;47.238;-2.304;2023-03-01T15:41:25;20.60;;;14.43;;
10557;SDS011;5327;47.238;-2.304;2023-03-01T15:43:52;19.20;;;14.20;;
10557;SDS011;5327;47.238;-2.304;2023-03-01T15:46:22;19.27;;;16.07;;
10557;SDS011;5327;47.238;-2.304;2023-03-01T15:48:50;17.57;;;14.53;;
10557;SDS011;5327;47.238;-2.304;2023-03-01T15:51:18;17.67;;;12.83;;
10557;SDS011;5327;47.238;-2.304;2023-03-01T15:53:49;19.70;;;14.37;;
10557;SDS011;5327;47.238;-2.304;2023-03-01T15:56:15;17.30;;;14.23;;
10557;SDS011;5327;47.238;-2.304;2023-03-01T15:58:42;17.93;;;13.67;;
10557;SDS011;5327;47.238;-2.304;2023-03-01T16:01:12;14.03;;;10.23;;
10557;SDS011;5327;47.238;-2.304;2023-03-01T16:03:38;13.20;;;10.63;;
10557;SDS011;5327;47.238;-2.304;2023-03-01T16:06:05;17.20;;;13.63;;
10557;SDS011;5327;47.238;-2.304;2023-03-01T16:08:31;15.40;;;13.13;;
10557;SDS011;5327;47.238;-2.304;2023-03-01T16:10:57;15.97;;;13.07;;
10557;SDS011;5327;47.238;-2.304;2023-03-01T16:13:23;12.70;;;11.23;;
10557;SDS011;5327;47.238;-2.304;2023-03-01T16:15:50;16.37;;;11.97;;
10557;SDS011;5327;47.238;-2.304;2023-03-01T16:18:16;12.87;;;11.47;;
10557;SDS011;5327;47.238;-2.304;2023-03-01T16:20:42;12.53;;;11.23;;